createdAt,value
2017-02-05T00:00:43.595Z,998.59
2017-02-05T00:01:43.533Z,998.57
2017-02-05T00:02:43.470Z,998.56
2017-02-05T00:03:43.408Z,998.6
2017-02-05T00:04:43.348Z,998.57
2017-02-05T00:05:43.280Z,998.6
2017-02-05T00:06:43.219Z,998.6
2017-02-05T00:07:43.156Z,998.58
2017-02-05T00:08:43.092Z,998.57
2017-02-05T00:09:43.029Z,998.55
2017-02-05T00:10:42.966Z,998.55
2017-02-05T00:11:42.904Z,998.61
2017-02-05T00:12:42.839Z,998.58
2017-02-05T00:13:42.779Z,998.53
2017-02-05T00:14:42.714Z,998.51
2017-02-05T00:15:42.651Z,998.55
2017-02-05T00:16:42.590Z,998.58
2017-02-05T00:17:42.526Z,998.61
2017-02-05T00:18:42.463Z,998.59
2017-02-05T00:19:42.399Z,998.6
2017-02-05T00:20:42.336Z,998.57
2017-02-05T00:21:42.273Z,998.55
2017-02-05T00:22:42.211Z,998.58
2017-02-05T00:23:42.152Z,998.6
2017-02-05T00:24:42.085Z,998.59
2017-02-05T00:25:42.021Z,998.59
2017-02-05T00:26:41.959Z,998.56
2017-02-05T00:27:41.897Z,998.57
2017-02-05T00:28:41.834Z,998.6
2017-02-05T00:29:41.770Z,998.61
2017-02-05T00:30:41.707Z,998.65
2017-02-05T00:31:41.645Z,998.66
2017-02-05T00:32:41.583Z,998.67
2017-02-05T00:33:41.519Z,998.67
2017-02-05T00:34:41.457Z,998.74
2017-02-05T00:35:41.395Z,998.69
2017-02-05T00:36:41.329Z,998.71
2017-02-05T00:37:41.268Z,998.7
2017-02-05T00:38:41.205Z,998.71
2017-02-05T00:39:41.143Z,998.72
2017-02-05T00:40:41.079Z,998.71
2017-02-05T00:41:41.016Z,998.76
2017-02-05T00:42:40.957Z,998.76
2017-02-05T00:43:40.889Z,998.73
2017-02-05T00:44:40.827Z,998.73
2017-02-05T00:45:40.764Z,998.65
2017-02-05T00:46:40.701Z,998.68
2017-02-05T00:47:40.638Z,998.69
2017-02-05T00:48:40.576Z,998.72
2017-02-05T00:49:40.512Z,998.73
2017-02-05T00:50:40.459Z,998.68
2017-02-05T00:51:40.387Z,998.62
2017-02-05T00:52:40.324Z,998.58
2017-02-05T00:53:40.264Z,998.57
2017-02-05T00:54:40.197Z,998.56
2017-02-05T00:55:40.136Z,998.5
2017-02-05T00:56:40.072Z,998.49
2017-02-05T00:57:40.011Z,998.45
2017-02-05T00:58:39.945Z,998.45
2017-02-05T00:59:39.884Z,998.42
2017-02-05T01:01:10.359Z,998.43
2017-02-05T01:02:10.293Z,998.36
2017-02-05T01:03:10.230Z,998.36
2017-02-05T01:04:10.167Z,998.27
2017-02-05T01:05:10.104Z,998.25
2017-02-05T01:06:10.043Z,998.24
2017-02-05T01:07:10.002Z,998.26
2017-02-05T01:08:09.914Z,998.25
2017-02-05T01:09:10.054Z,998.21
2017-02-05T01:10:09.789Z,998.23
2017-02-05T01:11:09.726Z,998.23
2017-02-05T01:12:09.663Z,998.23
2017-02-05T01:13:09.600Z,998.24
2017-02-05T01:14:09.540Z,998.22
2017-02-05T01:15:09.474Z,998.25
2017-02-05T01:16:09.411Z,998.27
2017-02-05T01:17:09.350Z,998.27
2017-02-05T01:18:09.288Z,998.28
2017-02-05T01:19:09.224Z,998.32
2017-02-05T01:20:09.160Z,998.31
2017-02-05T01:21:09.098Z,998.34
2017-02-05T01:22:09.033Z,998.34
2017-02-05T01:23:08.972Z,998.35
2017-02-05T01:24:08.908Z,998.33
2017-02-05T01:25:08.845Z,998.35
2017-02-05T01:26:08.781Z,998.39
2017-02-05T01:27:08.718Z,998.38
2017-02-05T01:28:08.656Z,998.44
2017-02-05T01:29:08.593Z,998.45
2017-02-05T01:30:08.530Z,998.43
2017-02-05T01:31:08.465Z,998.49
2017-02-05T01:32:08.403Z,998.56
2017-02-05T01:33:08.341Z,998.62
2017-02-05T01:34:08.277Z,998.7
2017-02-05T01:35:08.215Z,998.66
2017-02-05T01:36:08.153Z,998.67
2017-02-05T01:37:08.087Z,998.66
2017-02-05T01:38:08.026Z,998.69
2017-02-05T01:39:07.963Z,998.69
2017-02-05T01:40:07.899Z,998.68
2017-02-05T01:41:07.835Z,998.7
2017-02-05T01:42:07.774Z,998.74
2017-02-05T01:43:07.711Z,998.69
2017-02-05T01:44:07.646Z,998.71
2017-02-05T01:45:07.585Z,998.62
2017-02-05T01:46:07.522Z,998.64
2017-02-05T01:47:07.460Z,998.67
2017-02-05T01:48:07.395Z,998.72
2017-02-05T01:49:07.331Z,998.68
2017-02-05T01:50:07.269Z,998.68
2017-02-05T01:51:07.206Z,998.69
2017-02-05T01:52:07.142Z,998.68
2017-02-05T01:53:07.082Z,998.66
2017-02-05T01:54:07.016Z,998.64
2017-02-05T01:55:06.954Z,998.61
2017-02-05T01:56:06.891Z,998.57
2017-02-05T01:57:06.827Z,998.6
2017-02-05T01:58:06.766Z,998.52
2017-02-05T01:59:06.703Z,998.55
2017-02-05T02:00:06.639Z,998.5
2017-02-05T02:01:06.576Z,998.44
2017-02-05T02:02:06.514Z,998.39
2017-02-05T02:03:06.449Z,998.42
2017-02-05T02:04:06.386Z,998.42
2017-02-05T02:05:06.324Z,998.41
2017-02-05T02:06:06.261Z,998.39
2017-02-05T02:07:06.196Z,998.41
2017-02-05T02:08:06.136Z,998.41
2017-02-05T02:09:06.072Z,998.38
2017-02-05T02:10:06.008Z,998.36
2017-02-05T02:11:05.945Z,998.33
2017-02-05T02:12:05.883Z,998.34
2017-02-05T02:13:05.821Z,998.3
2017-02-05T02:14:05.757Z,998.26
2017-02-05T02:15:05.695Z,998.28
2017-02-05T02:16:05.630Z,998.28
2017-02-05T02:17:05.566Z,998.23
2017-02-05T02:18:05.504Z,998.23
2017-02-05T02:19:05.442Z,998.18
2017-02-05T02:20:05.380Z,998.22
2017-02-05T02:21:05.317Z,998.21
2017-02-05T02:22:05.253Z,998.16
2017-02-05T02:23:05.190Z,998.16
2017-02-05T02:24:05.128Z,998.14
2017-02-05T02:25:05.063Z,998.1
2017-02-05T02:26:05.000Z,998.08
2017-02-05T02:27:04.938Z,998.11
2017-02-05T02:28:04.876Z,998.15
2017-02-05T02:29:04.812Z,998.16
2017-02-05T02:30:04.749Z,998.18
2017-02-05T02:31:04.687Z,998.2
2017-02-05T02:32:04.623Z,998.2
2017-02-05T02:33:04.560Z,998.23
2017-02-05T02:34:04.499Z,998.16
2017-02-05T02:35:04.456Z,998.14
2017-02-05T02:36:04.372Z,998.13
2017-02-05T02:37:04.309Z,998.12
2017-02-05T02:38:04.247Z,998.14
2017-02-05T02:39:04.182Z,998.15
2017-02-05T02:40:04.121Z,998.15
2017-02-05T02:41:04.058Z,998.11
2017-02-05T02:42:03.998Z,998.1
2017-02-05T02:43:03.931Z,998.03
2017-02-05T02:44:03.869Z,998.1
2017-02-05T02:45:03.806Z,998.06
2017-02-05T02:46:03.742Z,998.13
2017-02-05T02:47:03.679Z,998.15
2017-02-05T02:48:03.617Z,998.19
2017-02-05T02:49:03.553Z,998.23
2017-02-05T02:50:03.490Z,998.24
2017-02-05T02:51:03.427Z,998.26
2017-02-05T02:52:03.365Z,998.25
2017-02-05T02:53:03.304Z,998.25
2017-02-05T02:54:03.239Z,998.22
2017-02-05T02:55:03.177Z,998.18
2017-02-05T02:56:03.113Z,998.16
2017-02-05T02:57:03.049Z,998.19
2017-02-05T02:58:02.988Z,998.18
2017-02-05T02:59:02.925Z,998.19
2017-02-05T03:00:02.863Z,998.22
2017-02-05T03:01:02.799Z,998.18
2017-02-05T03:02:02.735Z,998.2
2017-02-05T03:03:02.672Z,998.16
2017-02-05T03:04:02.609Z,998.16
2017-02-05T03:05:02.552Z,998.15
2017-02-05T03:06:02.485Z,998.11
2017-02-05T03:07:02.422Z,998.14
2017-02-05T03:08:02.357Z,998.09
2017-02-05T03:09:02.296Z,998.08
2017-02-05T03:10:02.232Z,998.05
2017-02-05T03:11:02.171Z,998.07
2017-02-05T03:12:02.106Z,998.04
2017-02-05T03:13:02.043Z,998.03
2017-02-05T03:14:01.981Z,998.06
2017-02-05T03:15:01.918Z,998.07
2017-02-05T03:16:01.854Z,998.05
2017-02-05T03:17:01.792Z,998.07
2017-02-05T03:18:01.730Z,998.06
2017-02-05T03:19:01.665Z,998.01
2017-02-05T03:20:01.602Z,998.02
2017-02-05T03:21:01.539Z,998
2017-02-05T03:22:01.477Z,997.97
2017-02-05T03:23:01.423Z,998.01
2017-02-05T03:24:01.352Z,998.01
2017-02-05T03:25:01.288Z,998.04
2017-02-05T03:26:01.225Z,998.02
2017-02-05T03:27:01.161Z,998.02
2017-02-05T03:28:01.099Z,998.04
2017-02-05T03:29:01.037Z,998.04
2017-02-05T03:30:00.973Z,998.06
2017-02-05T03:31:00.911Z,998.06
2017-02-05T03:32:00.847Z,998.07
2017-02-05T03:33:00.786Z,998.07
2017-02-05T03:34:00.722Z,998.09
2017-02-05T03:35:00.657Z,998.11
2017-02-05T03:36:00.596Z,998.08
2017-02-05T03:37:00.532Z,998.07
2017-02-05T03:38:00.468Z,998.04
2017-02-05T03:39:00.406Z,998.06
2017-02-05T03:40:00.347Z,998.04
2017-02-05T03:41:00.279Z,997.99
2017-02-05T03:42:00.217Z,998.02
2017-02-05T03:43:00.154Z,998.01
2017-02-05T03:44:00.093Z,998.06
2017-02-05T03:45:00.027Z,998.06
2017-02-05T03:45:59.967Z,998.09
2017-02-05T03:46:59.903Z,998.11
2017-02-05T03:47:59.840Z,998.13
2017-02-05T03:48:59.774Z,998.1
2017-02-05T03:49:59.713Z,998.07
2017-02-05T03:50:59.649Z,998.09
2017-02-05T03:51:59.587Z,998.05
2017-02-05T03:52:59.524Z,998.06
2017-02-05T03:53:59.462Z,998.03
2017-02-05T03:54:59.400Z,998.05
2017-02-05T03:55:59.336Z,998.07
2017-02-05T03:56:59.275Z,998.05
2017-02-05T03:57:59.209Z,998.07
2017-02-05T03:58:59.147Z,998.05
2017-02-05T03:59:59.084Z,998.03
2017-02-05T04:00:59.019Z,997.98
2017-02-05T04:01:58.957Z,997.99
2017-02-05T04:02:58.893Z,997.95
2017-02-05T04:03:58.840Z,997.96
2017-02-05T04:04:58.768Z,997.9
2017-02-05T04:05:58.707Z,997.87
2017-02-05T04:06:58.653Z,997.88
2017-02-05T04:07:58.580Z,997.87
2017-02-05T04:08:58.517Z,997.9
2017-02-05T04:09:58.464Z,997.86
2017-02-05T04:10:58.392Z,997.88
2017-02-05T04:11:58.329Z,997.87
2017-02-05T04:12:58.275Z,997.9
2017-02-05T04:13:58.200Z,997.89
2017-02-05T04:14:58.139Z,997.92
2017-02-05T04:15:58.085Z,997.9
2017-02-05T04:16:58.024Z,997.91
2017-02-05T04:17:57.951Z,997.89
2017-02-05T04:18:57.887Z,997.93
2017-02-05T04:19:57.826Z,997.88
2017-02-05T04:20:57.761Z,997.82
2017-02-05T04:21:57.698Z,997.82
2017-02-05T04:22:57.636Z,997.83
2017-02-05T04:23:57.572Z,997.8
2017-02-05T04:24:57.510Z,997.8
2017-02-05T04:25:57.447Z,997.81
2017-02-05T04:26:57.384Z,997.77
2017-02-05T04:27:57.322Z,997.77
2017-02-05T04:28:57.258Z,997.78
2017-02-05T04:29:57.195Z,997.84
2017-02-05T04:30:57.132Z,997.84
2017-02-05T04:31:57.069Z,997.89
2017-02-05T04:32:57.006Z,997.88
2017-02-05T04:33:56.944Z,997.91
2017-02-05T04:34:56.880Z,997.91
2017-02-05T04:35:56.818Z,997.9
2017-02-05T04:36:56.755Z,997.95
2017-02-05T04:37:56.690Z,998
2017-02-05T04:38:56.629Z,998.03
2017-02-05T04:39:56.564Z,998.01
2017-02-05T04:40:56.503Z,998.01
2017-02-05T04:41:56.439Z,998.03
2017-02-05T04:42:56.376Z,998.04
2017-02-05T04:43:56.313Z,998.08
2017-02-05T04:44:56.251Z,998.08
2017-02-05T04:45:56.187Z,998.09
2017-02-05T04:46:56.123Z,998.07
2017-02-05T04:47:56.060Z,998.11
2017-02-05T04:48:55.998Z,998.12
2017-02-05T04:49:55.934Z,998.12
2017-02-05T04:50:55.871Z,998.16
2017-02-05T04:51:55.810Z,998.15
2017-02-05T04:52:55.746Z,998.18
2017-02-05T04:53:55.682Z,998.2
2017-02-05T04:54:55.620Z,998.23
2017-02-05T04:55:55.556Z,998.2
2017-02-05T04:56:55.495Z,998.18
2017-02-05T04:57:55.431Z,998.21
2017-02-05T04:58:55.369Z,998.25
2017-02-05T04:59:55.306Z,998.21
2017-02-05T05:00:55.243Z,998.23
2017-02-05T05:01:55.178Z,998.21
2017-02-05T05:02:55.116Z,998.22
2017-02-05T05:03:55.052Z,998.26
2017-02-05T05:04:54.990Z,998.28
2017-02-05T05:05:54.927Z,998.29
2017-02-05T05:06:54.863Z,998.32
2017-02-05T05:07:54.802Z,998.27
2017-02-05T05:08:54.738Z,998.29
2017-02-05T05:09:54.684Z,998.34
2017-02-05T05:10:54.612Z,998.37
2017-02-05T05:11:54.551Z,998.41
2017-02-05T05:12:54.487Z,998.39
2017-02-05T05:13:54.424Z,998.4
2017-02-05T05:14:54.362Z,998.42
2017-02-05T05:15:54.297Z,998.41
2017-02-05T05:16:54.234Z,998.38
2017-02-05T05:17:54.172Z,998.4
2017-02-05T05:18:54.111Z,998.37
2017-02-05T05:19:54.044Z,998.38
2017-02-05T05:20:53.981Z,998.35
2017-02-05T05:21:53.919Z,998.37
2017-02-05T05:22:53.855Z,998.35
2017-02-05T05:23:53.792Z,998.41
2017-02-05T05:24:53.729Z,998.45
2017-02-05T05:25:53.666Z,998.44
2017-02-05T05:26:53.604Z,998.43
2017-02-05T05:27:53.542Z,998.47
2017-02-05T05:28:53.479Z,998.48
2017-02-05T05:29:53.416Z,998.46
2017-02-05T05:30:53.352Z,998.51
2017-02-05T05:31:53.288Z,998.47
2017-02-05T05:32:53.226Z,998.54
2017-02-05T05:33:53.163Z,998.56
2017-02-05T05:34:53.100Z,998.52
2017-02-05T05:35:53.037Z,998.56
2017-02-05T05:36:52.973Z,998.6
2017-02-05T05:37:52.910Z,998.59
2017-02-05T05:38:52.847Z,998.57
2017-02-05T05:39:52.785Z,998.61
2017-02-05T05:40:52.720Z,998.64
2017-02-05T05:41:52.657Z,998.65
2017-02-05T05:42:52.595Z,998.64
2017-02-05T05:43:52.531Z,998.65
2017-02-05T05:44:52.471Z,998.62
2017-02-05T05:45:52.408Z,998.65
2017-02-05T05:46:52.344Z,998.62
2017-02-05T05:47:52.280Z,998.63
2017-02-05T05:48:52.216Z,998.62
2017-02-05T05:49:52.154Z,998.59
2017-02-05T05:50:52.090Z,998.6
2017-02-05T05:51:52.029Z,998.63
2017-02-05T05:52:51.966Z,998.62
2017-02-05T05:53:51.903Z,998.6
2017-02-05T05:54:51.838Z,998.61
2017-02-05T05:55:51.775Z,998.62
2017-02-05T05:56:51.713Z,998.63
2017-02-05T05:57:51.651Z,998.62
2017-02-05T05:58:51.588Z,998.59
2017-02-05T05:59:51.523Z,998.59
2017-02-05T06:00:51.461Z,998.55
2017-02-05T06:01:51.397Z,998.62
2017-02-05T06:02:51.336Z,998.57
2017-02-05T06:03:51.271Z,998.56
2017-02-05T06:04:51.208Z,998.56
2017-02-05T06:05:51.145Z,998.58
2017-02-05T06:06:51.084Z,998.59
2017-02-05T06:07:51.018Z,998.57
2017-02-05T06:08:50.956Z,998.56
2017-02-05T06:09:50.895Z,998.58
2017-02-05T06:10:50.829Z,998.59
2017-02-05T06:11:50.768Z,998.59
2017-02-05T06:12:50.705Z,998.57
2017-02-05T06:13:50.642Z,998.56
2017-02-05T06:14:50.579Z,998.56
2017-02-05T06:15:50.516Z,998.56
2017-02-05T06:16:50.453Z,998.58
2017-02-05T06:17:50.388Z,998.57
2017-02-05T06:18:50.325Z,998.53
2017-02-05T06:19:50.263Z,998.52
2017-02-05T06:20:50.200Z,998.49
2017-02-05T06:21:50.136Z,998.49
2017-02-05T06:22:50.073Z,998.5
2017-02-05T06:23:50.010Z,998.54
2017-02-05T06:24:49.946Z,998.52
2017-02-05T06:25:49.885Z,998.56
2017-02-05T06:26:49.821Z,998.57
2017-02-05T06:27:49.758Z,998.6
2017-02-05T06:28:49.694Z,998.63
2017-02-05T06:29:49.631Z,998.64
2017-02-05T06:30:49.571Z,998.68
2017-02-05T06:31:49.506Z,998.62
2017-02-05T06:32:49.442Z,998.65
2017-02-05T06:33:49.379Z,998.62
2017-02-05T06:34:49.316Z,998.6
2017-02-05T06:35:49.252Z,998.61
2017-02-05T06:36:49.190Z,998.57
2017-02-05T06:37:49.134Z,998.58
2017-02-05T06:38:49.064Z,998.57
2017-02-05T06:39:48.999Z,998.61
2017-02-05T06:40:48.937Z,998.62
2017-02-05T06:41:48.875Z,998.61
2017-02-05T06:42:48.813Z,998.62
2017-02-05T06:43:48.749Z,998.6
2017-02-05T06:44:48.685Z,998.64
2017-02-05T06:45:48.622Z,998.62
2017-02-05T06:46:48.560Z,998.61
2017-02-05T06:47:48.496Z,998.66
2017-02-05T06:48:48.435Z,998.66
2017-02-05T06:49:48.371Z,998.66
2017-02-05T06:50:48.308Z,998.64
2017-02-05T06:51:48.245Z,998.69
2017-02-05T06:52:48.182Z,998.67
2017-02-05T06:53:48.120Z,998.7
2017-02-05T06:54:48.055Z,998.68
2017-02-05T06:55:47.992Z,998.67
2017-02-05T06:56:47.931Z,998.67
2017-02-05T06:57:47.870Z,998.7
2017-02-05T06:58:47.804Z,998.69
2017-02-05T06:59:47.741Z,998.69
2017-02-05T07:00:47.679Z,998.73
2017-02-05T07:01:47.614Z,998.7
2017-02-05T07:02:47.551Z,998.72
2017-02-05T07:03:47.489Z,998.69
2017-02-05T07:04:47.426Z,998.73
2017-02-05T07:05:47.364Z,998.73
2017-02-05T07:06:47.299Z,998.71
2017-02-05T07:07:47.236Z,998.78
2017-02-05T07:08:47.174Z,998.82
2017-02-05T07:09:47.110Z,998.82
2017-02-05T07:10:47.048Z,998.88
2017-02-05T07:11:46.986Z,998.87
2017-02-05T07:12:46.921Z,998.89
2017-02-05T07:13:46.858Z,998.87
2017-02-05T07:14:46.797Z,998.86
2017-02-05T07:15:46.733Z,998.83
2017-02-05T07:16:46.670Z,998.85
2017-02-05T07:17:46.607Z,998.86
2017-02-05T07:18:46.544Z,998.87
2017-02-05T07:19:46.480Z,998.88
2017-02-05T07:20:46.419Z,998.87
2017-02-05T07:21:46.355Z,998.86
2017-02-05T07:22:46.294Z,998.83
2017-02-05T07:23:46.231Z,998.82
2017-02-05T07:24:46.166Z,998.82
2017-02-05T07:25:46.104Z,998.78
2017-02-05T07:26:46.041Z,998.8
2017-02-05T07:27:45.980Z,998.81
2017-02-05T07:28:45.915Z,998.82
2017-02-05T07:29:45.853Z,998.8
2017-02-05T07:30:45.789Z,998.77
2017-02-05T07:31:45.727Z,998.78
2017-02-05T07:32:45.664Z,998.77
2017-02-05T07:33:45.600Z,998.77
2017-02-05T07:34:45.537Z,998.83
2017-02-05T07:35:45.475Z,998.79
2017-02-05T07:36:45.411Z,998.78
2017-02-05T07:37:45.349Z,998.77
2017-02-05T07:38:45.285Z,998.81
2017-02-05T07:39:45.223Z,998.81
2017-02-05T07:40:45.160Z,998.83
2017-02-05T07:41:45.096Z,998.84
2017-02-05T07:42:45.034Z,998.87
2017-02-05T07:43:44.969Z,998.9
2017-02-05T07:44:44.907Z,998.91
2017-02-05T07:45:44.846Z,998.89
2017-02-05T07:46:44.782Z,998.9
2017-02-05T07:47:44.719Z,998.87
2017-02-05T07:48:44.655Z,998.88
2017-02-05T07:49:44.591Z,998.88
2017-02-05T07:50:44.529Z,998.89
2017-02-05T07:51:44.467Z,998.93
2017-02-05T07:52:44.403Z,998.93
2017-02-05T07:53:44.340Z,998.89
2017-02-05T07:54:44.277Z,998.9
2017-02-05T07:55:44.221Z,998.93
2017-02-05T07:56:44.151Z,998.96
2017-02-05T07:57:44.089Z,998.95
2017-02-05T07:58:44.027Z,998.95
2017-02-05T07:59:43.962Z,998.91
2017-02-05T08:00:43.901Z,998.96
2017-02-05T08:01:43.837Z,998.96
2017-02-05T08:02:43.774Z,998.95
2017-02-05T08:03:43.710Z,998.96
2017-02-05T08:04:43.648Z,998.98
2017-02-05T08:05:43.586Z,998.98
2017-02-05T08:06:43.523Z,999
2017-02-05T08:07:43.459Z,999.02
2017-02-05T08:08:43.396Z,999.03
2017-02-05T08:09:43.332Z,998.99
2017-02-05T08:10:43.268Z,998.98
2017-02-05T08:11:43.206Z,999.01
2017-02-05T08:12:43.143Z,999.01
2017-02-05T08:13:43.092Z,999.05
2017-02-05T08:14:43.015Z,999.04
2017-02-05T08:15:42.954Z,999.08
2017-02-05T08:16:42.891Z,999.04
2017-02-05T08:17:42.828Z,999.07
2017-02-05T08:18:42.764Z,999.05
2017-02-05T08:19:42.702Z,999.08
2017-02-05T08:20:42.640Z,999.06
2017-02-05T08:21:42.577Z,999.13
2017-02-05T08:22:42.512Z,999.1
2017-02-05T08:23:42.449Z,999.09
2017-02-05T08:24:42.386Z,999.09
2017-02-05T08:25:42.322Z,999.1
2017-02-05T08:26:42.261Z,999.06
2017-02-05T08:27:42.196Z,999.05
2017-02-05T08:28:42.134Z,999.06
2017-02-05T08:29:42.071Z,999.05
2017-02-05T08:30:42.009Z,999.09
2017-02-05T08:31:41.945Z,999.06
2017-02-05T08:32:41.884Z,999.04
2017-02-05T08:33:41.818Z,999.08
2017-02-05T08:34:41.758Z,999.09
2017-02-05T08:35:41.693Z,999.08
2017-02-05T08:36:41.640Z,999.08
2017-02-05T08:37:41.567Z,999.07
2017-02-05T08:38:41.505Z,999.08
2017-02-05T08:39:41.442Z,999.05
2017-02-05T08:40:41.377Z,999.08
2017-02-05T08:41:41.318Z,999.12
2017-02-05T08:42:41.251Z,999.09
2017-02-05T08:43:41.190Z,999.08
2017-02-05T08:44:41.128Z,999.08
2017-02-05T08:45:41.063Z,999.06
2017-02-05T08:46:41.000Z,999.06
2017-02-05T08:47:40.936Z,999.05
2017-02-05T08:48:40.873Z,999.03
2017-02-05T08:49:40.811Z,999.03
2017-02-05T08:50:40.750Z,999.06
2017-02-05T08:51:40.685Z,999.11
2017-02-05T08:52:40.622Z,999.11
2017-02-05T08:53:40.557Z,999.1
2017-02-05T08:54:40.496Z,999.11
2017-02-05T08:55:40.433Z,999.19
2017-02-05T08:56:40.369Z,999.14
2017-02-05T08:57:40.318Z,999.19
2017-02-05T08:58:40.244Z,999.16
2017-02-05T08:59:40.180Z,999.19
2017-02-05T09:00:40.117Z,999.18
2017-02-05T09:01:40.056Z,999.19
2017-02-05T09:02:39.990Z,999.16
2017-02-05T09:03:39.927Z,999.15
2017-02-05T09:04:39.865Z,999.18
2017-02-05T09:05:39.804Z,999.19
2017-02-05T09:06:39.738Z,999.18
2017-02-05T09:07:39.676Z,999.2
2017-02-05T09:08:39.613Z,999.17
2017-02-05T09:09:39.550Z,999.16
2017-02-05T09:10:39.488Z,999.15
2017-02-05T09:11:39.423Z,999.14
2017-02-05T09:12:39.362Z,999.11
2017-02-05T09:13:39.298Z,999.11
2017-02-05T09:14:39.234Z,999.12
2017-02-05T09:15:39.171Z,999.11
2017-02-05T09:16:39.108Z,999.08
2017-02-05T09:17:39.044Z,999.09
2017-02-05T09:18:38.983Z,999.06
2017-02-05T09:19:38.920Z,999.07
2017-02-05T09:20:38.858Z,999.07
2017-02-05T09:21:38.794Z,999.05
2017-02-05T09:22:38.731Z,999.08
2017-02-05T09:23:38.669Z,999.07
2017-02-05T09:24:38.606Z,999.03
2017-02-05T09:25:38.541Z,999.06
2017-02-05T09:26:38.478Z,999.05
2017-02-05T09:27:38.415Z,999.06
2017-02-05T09:28:38.352Z,999.04
2017-02-05T09:29:38.289Z,999.06
2017-02-05T09:30:38.227Z,999.06
2017-02-05T09:31:38.162Z,999.06
2017-02-05T09:32:38.101Z,999.05
2017-02-05T09:33:38.038Z,999.05
2017-02-05T09:34:37.974Z,999.1
2017-02-05T09:35:37.911Z,999.07
2017-02-05T09:36:37.848Z,999.11
2017-02-05T09:37:37.786Z,999.14
2017-02-05T09:38:37.720Z,999.13
2017-02-05T09:39:37.659Z,999.13
2017-02-05T09:40:37.596Z,999.15
2017-02-05T09:41:37.532Z,999.15
2017-02-05T09:42:37.469Z,999.15
2017-02-05T09:43:37.407Z,999.15
2017-02-05T09:44:37.342Z,999.12
2017-02-05T09:45:37.281Z,999.14
2017-02-05T09:46:37.217Z,999.16
2017-02-05T09:47:37.153Z,999.16
2017-02-05T09:48:37.091Z,999.14
2017-02-05T09:49:37.027Z,999.18
2017-02-05T09:50:36.965Z,999.16
2017-02-05T09:51:36.902Z,999.15
2017-02-05T09:52:36.837Z,999.14
2017-02-05T09:53:36.776Z,999.08
2017-02-05T09:54:36.712Z,999.11
2017-02-05T09:55:36.648Z,999.1
2017-02-05T09:56:36.587Z,999.1
2017-02-05T09:57:36.523Z,999.15
2017-02-05T09:58:36.488Z,999.12
2017-02-05T09:59:36.397Z,999.12
2017-02-05T10:00:36.332Z,999.1
2017-02-05T10:01:36.269Z,999.09
2017-02-05T10:02:36.206Z,999.06
2017-02-05T10:03:36.144Z,999.07
2017-02-05T10:04:36.080Z,999.06
2017-02-05T10:05:36.018Z,999.05
2017-02-05T10:06:35.954Z,999.05
2017-02-05T10:07:35.893Z,999.08
2017-02-05T10:08:35.828Z,999.07
2017-02-05T10:09:35.765Z,999.05
2017-02-05T10:10:35.703Z,999.04
2017-02-05T10:11:35.639Z,999.07
2017-02-05T10:12:35.577Z,999.06
2017-02-05T10:13:35.513Z,999.07
2017-02-05T10:14:35.449Z,999.11
2017-02-05T10:15:35.388Z,999.09
2017-02-05T10:16:35.325Z,999.14
2017-02-05T10:17:35.261Z,999.13
2017-02-05T10:18:35.198Z,999.14
2017-02-05T10:19:35.135Z,999.15
2017-02-05T10:20:35.072Z,999.21
2017-02-05T10:21:35.008Z,999.2
2017-02-05T10:22:34.944Z,999.16
2017-02-05T10:23:34.883Z,999.18
2017-02-05T10:24:34.821Z,999.16
2017-02-05T10:25:34.756Z,999.14
2017-02-05T10:26:34.692Z,999.15
2017-02-05T10:27:34.629Z,999.15
2017-02-05T10:28:34.567Z,999.15
2017-02-05T10:29:34.509Z,999.15
2017-02-05T10:30:34.441Z,999.12
2017-02-05T10:31:34.379Z,999.18
2017-02-05T10:32:34.316Z,999.18
2017-02-05T10:33:34.254Z,999.17
2017-02-05T10:34:34.189Z,999.14
2017-02-05T10:35:34.129Z,999.15
2017-02-05T10:36:34.091Z,999.16
2017-02-05T10:37:34.000Z,999.16
2017-02-05T10:38:33.939Z,999.14
2017-02-05T10:39:33.875Z,999.14
2017-02-05T10:40:33.811Z,999.13
2017-02-05T10:41:33.749Z,999.14
2017-02-05T10:42:33.686Z,999.12
2017-02-05T10:43:33.623Z,999.12
2017-02-05T10:44:33.559Z,999.08
2017-02-05T10:45:33.501Z,999.1
2017-02-05T10:46:33.436Z,999.11
2017-02-05T10:47:33.372Z,999.13
2017-02-05T10:48:33.309Z,999.12
2017-02-05T10:49:33.245Z,999.11
2017-02-05T10:50:33.182Z,999.12
2017-02-05T10:51:33.119Z,999.13
2017-02-05T10:52:33.056Z,999.11
2017-02-05T10:53:32.993Z,999.17
2017-02-05T10:54:32.928Z,999.14
2017-02-05T10:55:32.866Z,999.16
2017-02-05T10:56:32.804Z,999.15
2017-02-05T10:57:32.740Z,999.09
2017-02-05T10:58:32.677Z,999.15
2017-02-05T10:59:32.614Z,999.17
2017-02-05T11:00:32.552Z,999.12
2017-02-05T11:01:32.489Z,999.07
2017-02-05T11:02:32.425Z,999.11
2017-02-05T11:03:32.367Z,999.1
2017-02-05T11:04:32.300Z,999.08
2017-02-05T11:05:32.237Z,999.07
2017-02-05T11:06:32.173Z,999.12
2017-02-05T11:07:32.110Z,999.08
2017-02-05T11:08:32.046Z,999.1
2017-02-05T11:09:31.983Z,999.09
2017-02-05T11:10:31.921Z,999.16
2017-02-05T11:11:31.859Z,999.17
2017-02-05T11:12:31.794Z,999.16
2017-02-05T11:13:31.730Z,999.15
2017-02-05T11:14:31.668Z,999.14
2017-02-05T11:15:31.608Z,999.11
2017-02-05T11:16:31.543Z,999.13
2017-02-05T11:17:31.478Z,999.1
2017-02-05T11:18:31.418Z,999.11
2017-02-05T11:19:31.354Z,999.11
2017-02-05T11:20:31.291Z,999.13
2017-02-05T11:21:31.229Z,999.13
2017-02-05T11:22:31.165Z,999.15
2017-02-05T11:23:31.100Z,999.15
2017-02-05T11:24:31.039Z,999.19
2017-02-05T11:25:30.976Z,999.14
2017-02-05T11:26:30.912Z,999.12
2017-02-05T11:27:30.852Z,999.13
2017-02-05T11:28:30.787Z,999.15
2017-02-05T11:29:30.724Z,999.14
2017-02-05T11:30:30.662Z,999.12
2017-02-05T11:31:30.599Z,999.16
2017-02-05T11:32:30.534Z,999.16
2017-02-05T11:33:30.472Z,999.19
2017-02-05T11:34:30.409Z,999.18
2017-02-05T11:35:30.345Z,999.2
2017-02-05T11:36:30.281Z,999.23
2017-02-05T11:37:30.220Z,999.28
2017-02-05T11:38:30.158Z,999.31
2017-02-05T11:39:30.096Z,999.32
2017-02-05T11:40:30.031Z,999.34
2017-02-05T11:41:29.967Z,999.37
2017-02-05T11:42:29.906Z,999.4
2017-02-05T11:43:29.841Z,999.4
2017-02-05T11:44:29.780Z,999.42
2017-02-05T11:45:29.715Z,999.42
2017-02-05T11:46:29.651Z,999.42
2017-02-05T11:47:29.589Z,999.42
2017-02-05T11:48:29.526Z,999.4
2017-02-05T11:49:29.465Z,999.4
2017-02-05T11:51:29.336Z,999.43
2017-02-05T11:52:29.276Z,999.44
2017-02-05T11:53:29.211Z,999.45
2017-02-05T11:54:29.149Z,999.48
2017-02-05T11:55:29.085Z,999.49
2017-02-05T11:56:29.023Z,999.51
2017-02-05T11:57:28.959Z,999.54
2017-02-05T11:58:28.897Z,999.54
2017-02-05T11:59:28.869Z,999.56
2017-02-05T12:00:28.770Z,999.56
2017-02-05T12:01:28.707Z,999.57
2017-02-05T12:02:28.643Z,999.54
2017-02-05T12:03:28.582Z,999.55
2017-02-05T12:04:28.519Z,999.57
2017-02-05T12:05:28.455Z,999.59
2017-02-05T12:06:28.392Z,999.6
2017-02-05T12:07:28.332Z,999.65
2017-02-05T12:08:28.267Z,999.63
2017-02-05T12:09:28.203Z,999.63
2017-02-05T12:10:28.142Z,999.61
2017-02-05T12:11:28.079Z,999.58
2017-02-05T12:12:28.028Z,999.6
2017-02-05T12:13:27.953Z,999.58
2017-02-05T12:14:27.890Z,999.57
2017-02-05T12:15:27.826Z,999.59
2017-02-05T12:16:27.763Z,999.6
2017-02-05T12:17:27.699Z,999.58
2017-02-05T12:18:27.638Z,999.61
2017-02-05T12:19:27.573Z,999.61
2017-02-05T12:20:27.512Z,999.59
2017-02-05T12:21:27.448Z,999.67
2017-02-05T12:22:27.385Z,999.64
2017-02-05T12:23:27.321Z,999.67
2017-02-05T12:24:27.260Z,999.65
2017-02-05T12:25:27.197Z,999.63
2017-02-05T12:26:27.134Z,999.67
2017-02-05T12:27:27.070Z,999.61
2017-02-05T12:28:27.007Z,999.62
2017-02-05T12:29:26.944Z,999.61
2017-02-05T12:30:26.881Z,999.62
2017-02-05T12:31:26.819Z,999.64